sensor_id;sensor_type;location;lat;lon;timestamp;temperature;humidity
19000;DHT22;9633;50.980;13.850;2023-02-01T00:01:20;5.50;99.90
19000;DHT22;9633;50.980;13.850;2023-02-01T00:02:52;5.40;99.90
19000;DHT22;9633;50.980;13.850;2023-02-01T00:04:27;5.30;99.90
19000;DHT22;9633;50.980;13.850;2023-02-01T00:06:00;5.30;99.90
19000;DHT22;9633;50.980;13.850;2023-02-01T00:07:34;5.30;99.90
19000;DHT22;9633;50.980;13.850;2023-02-01T00:09:07;5.30;99.90
19000;DHT22;9633;50.980;13.850;2023-02-01T00:10:40;5.20;99.90
19000;DHT22;9633;50.980;13.850;2023-02-01T00:12:13;5.20;99.90
19000;DHT22;9633;50.980;13.850;2023-02-01T00:13:46;5.10;99.90
19000;DHT22;9633;50.980;13.850;2023-02-01T00:15:19;5.10;99.90
19000;DHT22;9633;50.980;13.850;2023-02-01T00:16:52;5.20;99.90
19000;DHT22;9633;50.980;13.850;2023-02-01T00:18:25;5.20;99.90
19000;DHT22;9633;50.980;13.850;2023-02-01T00:20:00;5.20;99.90
19000;DHT22;9633;50.980;13.850;2023-02-01T00:21:33;5.30;99.90
19000;DHT22;9633;50.980;13.850;2023-02-01T00:23:07;5.30;99.90
19000;DHT22;9633;50.980;13.850;2023-02-01T00:24:41;5.30;99.90
19000;DHT22;9633;50.980;13.850;2023-02-01T00:26:16;5.30;99.90
19000;DHT22;9633;50.980;13.850;2023-02-01T00:27:49;5.40;99.90
19000;DHT22;9633;50.980;13.850;2023-02-01T00:29:22;5.30;99.90
19000;DHT22;9633;50.980;13.850;2023-02-01T00:30:57;5.30;99.90
19000;DHT22;9633;50.980;13.850;2023-02-01T00:32:31;5.30;99.90
19000;DHT22;9633;50.980;13.850;2023-02-01T00:34:04;5.30;99.90
19000;DHT22;9633;50.980;13.850;2023-02-01T00:35:38;5.30;99.90
19000;DHT22;9633;50.980;13.850;2023-02-01T00:37:11;5.30;99.90
19000;DHT22;9633;50.980;13.850;2023-02-01T00:38:44;5.30;99.90
19000;DHT22;9633;50.980;13.850;2023-02-01T00:40:17;5.20;99.90
19000;DHT22;9633;50.980;13.850;2023-02-01T00:41:50;5.20;99.90
19000;DHT22;9633;50.980;13.850;2023-02-01T00:43:25;5.20;99.90
19000;DHT22;9633;50.980;13.850;2023-02-01T00:44:58;5.30;99.90
19000;DHT22;9633;50.980;13.850;2023-02-01T00:46:31;5.30;99.90
19000;DHT22;9633;50.980;13.850;2023-02-01T00:48:05;5.20;99.90
19000;DHT22;9633;50.980;13.850;2023-02-01T00:49:38;5.20;99.90
19000;DHT22;9633;50.980;13.850;2023-02-01T00:51:14;5.20;99.90
19000;DHT22;9633;50.980;13.850;2023-02-01T00:52:48;5.20;99.90
19000;DHT22;9633;50.980;13.850;2023-02-01T00:54:21;5.20;99.90
19000;DHT22;9633;50.980;13.850;2023-02-01T00:55:54;5.10;99.90
19000;DHT22;9633;50.980;13.850;2023-02-01T00:57:28;5.20;99.90
19000;DHT22;9633;50.980;13.850;2023-02-01T00:59:01;5.20;99.90
19000;DHT22;9633;50.980;13.850;2023-02-01T01:00:34;5.10;99.90
19000;DHT22;9633;50.980;13.850;2023-02-01T01:02:06;5.10;99.90
19000;DHT22;9633;50.980;13.850;2023-02-01T01:03:41;5.10;99.90
19000;DHT22;9633;50.980;13.850;2023-02-01T01:05:13;5.30;99.90
19000;DHT22;9633;50.980;13.850;2023-02-01T01:06:48;5.30;99.90
19000;DHT22;9633;50.980;13.850;2023-02-01T01:08:21;5.40;99.90
19000;DHT22;9633;50.980;13.850;2023-02-01T01:09:54;5.40;99.90
19000;DHT22;9633;50.980;13.850;2023-02-01T01:11:29;5.30;99.90
19000;DHT22;9633;50.980;13.850;2023-02-01T01:13:03;5.20;99.90
19000;DHT22;9633;50.980;13.850;2023-02-01T01:14:36;5.10;99.90
19000;DHT22;9633;50.980;13.850;2023-02-01T01:16:10;5.20;99.90
19000;DHT22;9633;50.980;13.850;2023-02-01T01:17:42;5.20;99.90
19000;DHT22;9633;50.980;13.850;2023-02-01T01:19:16;5.10;99.90
19000;DHT22;9633;50.980;13.850;2023-02-01T01:20:49;5.10;99.90
19000;DHT22;9633;50.980;13.850;2023-02-01T01:22:23;5.20;99.90
19000;DHT22;9633;50.980;13.850;2023-02-01T01:23:57;5.20;99.90
19000;DHT22;9633;50.980;13.850;2023-02-01T01:25:30;5.20;99.90
19000;DHT22;9633;50.980;13.850;2023-02-01T01:27:03;5.20;99.90
19000;DHT22;9633;50.980;13.850;2023-02-01T01:28:36;5.30;99.90
19000;DHT22;9633;50.980;13.850;2023-02-01T01:30:10;5.20;99.90
19000;DHT22;9633;50.980;13.850;2023-02-01T01:31:43;5.10;99.90
19000;DHT22;9633;50.980;13.850;2023-02-01T01:33:16;5.10;99.90
19000;DHT22;9633;50.980;13.850;2023-02-01T01:34:48;5.10;99.90
19000;DHT22;9633;50.980;13.850;2023-02-01T01:36:23;5.10;99.90
19000;DHT22;9633;50.980;13.850;2023-02-01T01:37:58;5.10;99.90
19000;DHT22;9633;50.980;13.850;2023-02-01T01:39:30;5.20;99.90
19000;DHT22;9633;50.980;13.850;2023-02-01T01:41:04;5.20;99.90
19000;DHT22;9633;50.980;13.850;2023-02-01T01:42:38;5.30;99.90
19000;DHT22;9633;50.980;13.850;2023-02-01T01:46:18;5.20;99.90
19000;DHT22;9633;50.980;13.850;2023-02-01T01:47:53;5.20;99.90
19000;DHT22;9633;50.980;13.850;2023-02-01T01:49:27;5.20;99.90
19000;DHT22;9633;50.980;13.850;2023-02-01T01:51:03;5.10;99.90
19000;DHT22;9633;50.980;13.850;2023-02-01T01:52:37;5.20;99.90
19000;DHT22;9633;50.980;13.850;2023-02-01T01:54:18;5.20;99.90
19000;DHT22;9633;50.980;13.850;2023-02-01T01:55:53;5.10;99.90
19000;DHT22;9633;50.980;13.850;2023-02-01T01:57:32;5.10;99.90
19000;DHT22;9633;50.980;13.850;2023-02-01T01:59:07;5.20;99.90
19000;DHT22;9633;50.980;13.850;2023-02-01T02:00:41;5.20;99.90
19000;DHT22;9633;50.980;13.850;2023-02-01T02:02:13;5.10;99.90
19000;DHT22;9633;50.980;13.850;2023-02-01T02:03:46;5.20;99.90
19000;DHT22;9633;50.980;13.850;2023-02-01T02:05:20;5.10;99.90
19000;DHT22;9633;50.980;13.850;2023-02-01T02:06:57;5.10;99.90
19000;DHT22;9633;50.980;13.850;2023-02-01T02:08:32;5.10;99.90
19000;DHT22;9633;50.980;13.850;2023-02-01T02:10:09;5.20;99.90
19000;DHT22;9633;50.980;13.850;2023-02-01T02:11:43;5.10;99.90
19000;DHT22;9633;50.980;13.850;2023-02-01T02:13:16;5.10;99.90
19000;DHT22;9633;50.980;13.850;2023-02-01T02:14:50;5.00;99.90
19000;DHT22;9633;50.980;13.850;2023-02-01T02:16:40;5.00;99.90
19000;DHT22;9633;50.980;13.850;2023-02-01T02:18:21;5.10;99.90
19000;DHT22;9633;50.980;13.850;2023-02-01T02:20:21;5.10;99.90
19000;DHT22;9633;50.980;13.850;2023-02-01T02:22:14;5.00;99.90
19000;DHT22;9633;50.980;13.850;2023-02-01T02:26:14;5.10;99.90
19000;DHT22;9633;50.980;13.850;2023-02-01T02:27:58;5.10;99.90
19000;DHT22;9633;50.980;13.850;2023-02-01T02:30:14;5.10;99.90
19000;DHT22;9633;50.980;13.850;2023-02-01T02:32:08;5.10;99.90
19000;DHT22;9633;50.980;13.850;2023-02-01T02:33:55;5.10;99.90
19000;DHT22;9633;50.980;13.850;2023-02-01T02:35:35;5.10;99.90
19000;DHT22;9633;50.980;13.850;2023-02-01T02:37:19;5.10;99.90
19000;DHT22;9633;50.980;13.850;2023-02-01T02:39:00;5.10;99.90
19000;DHT22;9633;50.980;13.850;2023-02-01T02:40:45;5.20;99.90
19000;DHT22;9633;50.980;13.850;2023-02-01T02:42:25;5.10;99.90
19000;DHT22;9633;50.980;13.850;2023-02-01T02:44:36;5.20;99.90
19000;DHT22;9633;50.980;13.850;2023-02-01T02:46:35;5.20;99.90
19000;DHT22;9633;50.980;13.850;2023-02-01T02:48:30;5.20;99.90
19000;DHT22;9633;50.980;13.850;2023-02-01T02:50:15;5.10;99.90
19000;DHT22;9633;50.980;13.850;2023-02-01T02:52:10;5.20;99.90
19000;DHT22;9633;50.980;13.850;2023-02-01T02:54:05;5.20;99.90
19000;DHT22;9633;50.980;13.850;2023-02-01T02:55:59;5.20;99.90
19000;DHT22;9633;50.980;13.850;2023-02-01T02:57:50;5.10;99.90
19000;DHT22;9633;50.980;13.850;2023-02-01T02:59:44;5.10;99.90
19000;DHT22;9633;50.980;13.850;2023-02-01T03:01:38;5.10;99.90
19000;DHT22;9633;50.980;13.850;2023-02-01T03:03:29;5.10;99.90
19000;DHT22;9633;50.980;13.850;2023-02-01T03:05:21;5.10;99.90
19000;DHT22;9633;50.980;13.850;2023-02-01T03:06:55;5.10;99.90
19000;DHT22;9633;50.980;13.850;2023-02-01T03:08:30;5.10;99.90
19000;DHT22;9633;50.980;13.850;2023-02-01T03:10:07;5.00;99.90
19000;DHT22;9633;50.980;13.850;2023-02-01T03:11:44;5.10;99.90
19000;DHT22;9633;50.980;13.850;2023-02-01T03:13:38;5.00;99.90
19000;DHT22;9633;50.980;13.850;2023-02-01T03:15:14;5.00;99.90
19000;DHT22;9633;50.980;13.850;2023-02-01T03:16:51;5.00;99.90
19000;DHT22;9633;50.980;13.850;2023-02-01T03:18:32;5.00;99.90
19000;DHT22;9633;50.980;13.850;2023-02-01T03:20:07;5.00;99.90
19000;DHT22;9633;50.980;13.850;2023-02-01T03:21:45;5.00;99.90
19000;DHT22;9633;50.980;13.850;2023-02-01T03:23:25;5.10;99.90
19000;DHT22;9633;50.980;13.850;2023-02-01T03:25:01;5.10;99.90
19000;DHT22;9633;50.980;13.850;2023-02-01T03:26:37;5.10;99.90
19000;DHT22;9633;50.980;13.850;2023-02-01T03:28:13;5.10;99.90
19000;DHT22;9633;50.980;13.850;2023-02-01T03:29:49;5.10;99.90
19000;DHT22;9633;50.980;13.850;2023-02-01T03:31:23;5.10;99.90
19000;DHT22;9633;50.980;13.850;2023-02-01T03:32:58;5.20;99.90
19000;DHT22;9633;50.980;13.850;2023-02-01T03:34:34;5.10;99.90
19000;DHT22;9633;50.980;13.850;2023-02-01T03:36:15;5.10;99.90
19000;DHT22;9633;50.980;13.850;2023-02-01T03:37:54;5.10;99.90
19000;DHT22;9633;50.980;13.850;2023-02-01T03:39:32;5.10;99.90
19000;DHT22;9633;50.980;13.850;2023-02-01T03:41:11;5.10;99.90
19000;DHT22;9633;50.980;13.850;2023-02-01T03:42:48;5.20;99.90
19000;DHT22;9633;50.980;13.850;2023-02-01T03:44:26;5.20;99.90
19000;DHT22;9633;50.980;13.850;2023-02-01T03:46:03;5.20;99.90
19000;DHT22;9633;50.980;13.850;2023-02-01T03:47:40;5.20;99.90
19000;DHT22;9633;50.980;13.850;2023-02-01T03:49:19;5.20;99.90
19000;DHT22;9633;50.980;13.850;2023-02-01T03:50:57;5.20;99.90
19000;DHT22;9633;50.980;13.850;2023-02-01T03:52:34;5.20;99.90
19000;DHT22;9633;50.980;13.850;2023-02-01T03:54:13;5.20;99.90
19000;DHT22;9633;50.980;13.850;2023-02-01T03:55:48;5.30;99.90
19000;DHT22;9633;50.980;13.850;2023-02-01T03:57:25;5.30;99.90
19000;DHT22;9633;50.980;13.850;2023-02-01T03:58:59;5.30;99.90
19000;DHT22;9633;50.980;13.850;2023-02-01T04:00:37;5.30;99.90
19000;DHT22;9633;50.980;13.850;2023-02-01T04:02:10;5.30;99.90
19000;DHT22;9633;50.980;13.850;2023-02-01T04:03:44;5.30;99.90
19000;DHT22;9633;50.980;13.850;2023-02-01T04:05:17;5.30;99.90
19000;DHT22;9633;50.980;13.850;2023-02-01T04:07:03;5.30;99.90
19000;DHT22;9633;50.980;13.850;2023-02-01T04:08:36;5.40;99.90
19000;DHT22;9633;50.980;13.850;2023-02-01T04:10:11;5.40;99.90
19000;DHT22;9633;50.980;13.850;2023-02-01T04:11:45;5.40;99.90
19000;DHT22;9633;50.980;13.850;2023-02-01T04:13:17;5.40;99.90
19000;DHT22;9633;50.980;13.850;2023-02-01T04:14:50;5.30;99.90
19000;DHT22;9633;50.980;13.850;2023-02-01T04:16:23;5.30;99.90
19000;DHT22;9633;50.980;13.850;2023-02-01T04:17:56;5.30;99.90
19000;DHT22;9633;50.980;13.850;2023-02-01T04:19:29;5.40;99.90
19000;DHT22;9633;50.980;13.850;2023-02-01T04:21:03;5.40;99.90
19000;DHT22;9633;50.980;13.850;2023-02-01T04:22:35;5.40;99.90
19000;DHT22;9633;50.980;13.850;2023-02-01T04:24:08;5.30;99.90
19000;DHT22;9633;50.980;13.850;2023-02-01T04:25:44;5.40;99.90
19000;DHT22;9633;50.980;13.850;2023-02-01T04:27:17;5.40;99.90
19000;DHT22;9633;50.980;13.850;2023-02-01T04:28:50;5.40;99.90
19000;DHT22;9633;50.980;13.850;2023-02-01T04:30:24;5.40;99.90
19000;DHT22;9633;50.980;13.850;2023-02-01T04:31:57;5.40;99.90
19000;DHT22;9633;50.980;13.850;2023-02-01T04:33:30;5.40;99.90
19000;DHT22;9633;50.980;13.850;2023-02-01T04:35:04;5.30;99.90
19000;DHT22;9633;50.980;13.850;2023-02-01T04:36:37;5.30;99.90
19000;DHT22;9633;50.980;13.850;2023-02-01T04:38:10;5.30;99.90
19000;DHT22;9633;50.980;13.850;2023-02-01T04:39:42;5.30;99.90
19000;DHT22;9633;50.980;13.850;2023-02-01T04:41:16;5.30;99.90
19000;DHT22;9633;50.980;13.850;2023-02-01T04:42:50;5.30;99.90
19000;DHT22;9633;50.980;13.850;2023-02-01T04:44:23;5.40;99.90
19000;DHT22;9633;50.980;13.850;2023-02-01T04:45:56;5.40;99.90
19000;DHT22;9633;50.980;13.850;2023-02-01T04:47:29;5.40;99.90
19000;DHT22;9633;50.980;13.850;2023-02-01T04:49:01;5.40;99.90
19000;DHT22;9633;50.980;13.850;2023-02-01T04:50:35;5.40;99.90
19000;DHT22;9633;50.980;13.850;2023-02-01T04:52:08;5.40;99.90
19000;DHT22;9633;50.980;13.850;2023-02-01T04:53:41;5.40;99.90
19000;DHT22;9633;50.980;13.850;2023-02-01T04:55:15;5.30;99.90
19000;DHT22;9633;50.980;13.850;2023-02-01T04:56:49;5.30;99.90
19000;DHT22;9633;50.980;13.850;2023-02-01T04:58:23;5.20;99.90
19000;DHT22;9633;50.980;13.850;2023-02-01T04:59:56;5.20;99.90
19000;DHT22;9633;50.980;13.850;2023-02-01T05:01:29;5.20;99.90
19000;DHT22;9633;50.980;13.850;2023-02-01T05:03:02;5.30;99.90
19000;DHT22;9633;50.980;13.850;2023-02-01T05:04:35;5.30;99.90
19000;DHT22;9633;50.980;13.850;2023-02-01T05:06:09;5.30;99.90
19000;DHT22;9633;50.980;13.850;2023-02-01T05:07:42;5.30;99.90
19000;DHT22;9633;50.980;13.850;2023-02-01T05:09:15;5.30;99.90
19000;DHT22;9633;50.980;13.850;2023-02-01T05:10:48;5.30;99.90
19000;DHT22;9633;50.980;13.850;2023-02-01T05:12:23;5.30;99.90
19000;DHT22;9633;50.980;13.850;2023-02-01T05:14:13;5.30;99.90
19000;DHT22;9633;50.980;13.850;2023-02-01T05:15:45;5.40;99.90
19000;DHT22;9633;50.980;13.850;2023-02-01T05:17:18;5.30;99.90
19000;DHT22;9633;50.980;13.850;2023-02-01T05:18:52;5.30;99.90
19000;DHT22;9633;50.980;13.850;2023-02-01T05:20:25;5.20;99.90
19000;DHT22;9633;50.980;13.850;2023-02-01T05:21:58;5.20;99.90
19000;DHT22;9633;50.980;13.850;2023-02-01T05:23:31;5.20;99.90
19000;DHT22;9633;50.980;13.850;2023-02-01T05:25:25;5.30;99.90
19000;DHT22;9633;50.980;13.850;2023-02-01T05:26:58;5.30;99.90
19000;DHT22;9633;50.980;13.850;2023-02-01T05:28:32;5.20;99.90
19000;DHT22;9633;50.980;13.850;2023-02-01T05:30:06;5.30;99.90
19000;DHT22;9633;50.980;13.850;2023-02-01T05:31:39;5.30;99.90
19000;DHT22;9633;50.980;13.850;2023-02-01T05:33:13;5.30;99.90
19000;DHT22;9633;50.980;13.850;2023-02-01T05:34:46;5.30;99.90
19000;DHT22;9633;50.980;13.850;2023-02-01T05:36:19;5.30;99.90
19000;DHT22;9633;50.980;13.850;2023-02-01T05:37:52;5.30;99.90
19000;DHT22;9633;50.980;13.850;2023-02-01T05:39:25;5.30;99.90
19000;DHT22;9633;50.980;13.850;2023-02-01T05:40:58;5.30;99.90
19000;DHT22;9633;50.980;13.850;2023-02-01T05:42:31;5.30;99.90
19000;DHT22;9633;50.980;13.850;2023-02-01T05:44:06;5.30;99.90
19000;DHT22;9633;50.980;13.850;2023-02-01T05:45:39;5.30;99.90
19000;DHT22;9633;50.980;13.850;2023-02-01T05:47:12;5.40;99.90
19000;DHT22;9633;50.980;13.850;2023-02-01T05:48:45;5.40;99.90
19000;DHT22;9633;50.980;13.850;2023-02-01T05:50:19;5.40;99.90
19000;DHT22;9633;50.980;13.850;2023-02-01T05:52:00;5.40;99.90
19000;DHT22;9633;50.980;13.850;2023-02-01T05:53:33;5.40;99.90
19000;DHT22;9633;50.980;13.850;2023-02-01T05:55:07;5.30;99.90
19000;DHT22;9633;50.980;13.850;2023-02-01T05:56:40;5.30;99.90
19000;DHT22;9633;50.980;13.850;2023-02-01T05:58:13;5.30;99.90
19000;DHT22;9633;50.980;13.850;2023-02-01T05:59:47;5.30;99.90
19000;DHT22;9633;50.980;13.850;2023-02-01T06:01:20;5.30;99.90
19000;DHT22;9633;50.980;13.850;2023-02-01T06:02:53;5.30;99.90
19000;DHT22;9633;50.980;13.850;2023-02-01T06:04:26;5.30;99.90
19000;DHT22;9633;50.980;13.850;2023-02-01T06:06:00;5.30;99.90
19000;DHT22;9633;50.980;13.850;2023-02-01T06:07:33;5.30;99.90
19000;DHT22;9633;50.980;13.850;2023-02-01T06:09:06;5.30;99.90
19000;DHT22;9633;50.980;13.850;2023-02-01T06:10:39;5.30;99.90
19000;DHT22;9633;50.980;13.850;2023-02-01T06:12:11;5.30;99.90
19000;DHT22;9633;50.980;13.850;2023-02-01T06:13:45;5.20;99.90
19000;DHT22;9633;50.980;13.850;2023-02-01T06:15:20;5.30;99.90
19000;DHT22;9633;50.980;13.850;2023-02-01T06:16:53;5.30;99.90
19000;DHT22;9633;50.980;13.850;2023-02-01T06:18:26;5.30;99.90
19000;DHT22;9633;50.980;13.850;2023-02-01T06:19:59;5.30;99.90
19000;DHT22;9633;50.980;13.850;2023-02-01T06:21:32;5.30;99.90
19000;DHT22;9633;50.980;13.850;2023-02-01T06:23:06;5.30;99.90
19000;DHT22;9633;50.980;13.850;2023-02-01T06:24:39;5.20;99.90
19000;DHT22;9633;50.980;13.850;2023-02-01T06:26:12;5.30;99.90
19000;DHT22;9633;50.980;13.850;2023-02-01T06:27:45;5.30;99.90
19000;DHT22;9633;50.980;13.850;2023-02-01T06:29:18;5.20;99.90
19000;DHT22;9633;50.980;13.850;2023-02-01T06:30:53;5.20;99.90
19000;DHT22;9633;50.980;13.850;2023-02-01T06:32:27;5.20;99.90
19000;DHT22;9633;50.980;13.850;2023-02-01T06:34:00;5.20;99.90
19000;DHT22;9633;50.980;13.850;2023-02-01T06:35:34;5.20;99.90
19000;DHT22;9633;50.980;13.850;2023-02-01T06:37:07;5.20;99.90
19000;DHT22;9633;50.980;13.850;2023-02-01T06:38:42;5.20;99.90
19000;DHT22;9633;50.980;13.850;2023-02-01T06:40:16;5.20;99.90
19000;DHT22;9633;50.980;13.850;2023-02-01T06:41:49;5.20;99.90
19000;DHT22;9633;50.980;13.850;2023-02-01T06:43:23;5.20;99.90
19000;DHT22;9633;50.980;13.850;2023-02-01T06:44:57;5.20;99.90
19000;DHT22;9633;50.980;13.850;2023-02-01T06:46:31;5.20;99.90
19000;DHT22;9633;50.980;13.850;2023-02-01T06:48:05;5.20;99.90
19000;DHT22;9633;50.980;13.850;2023-02-01T06:49:38;5.30;99.90
19000;DHT22;9633;50.980;13.850;2023-02-01T06:51:22;5.30;99.90
19000;DHT22;9633;50.980;13.850;2023-02-01T06:52:56;5.30;99.90
19000;DHT22;9633;50.980;13.850;2023-02-01T06:54:29;5.20;99.90
19000;DHT22;9633;50.980;13.850;2023-02-01T06:56:04;5.20;99.90
19000;DHT22;9633;50.980;13.850;2023-02-01T06:57:37;5.20;99.90
19000;DHT22;9633;50.980;13.850;2023-02-01T06:59:11;5.10;99.90
19000;DHT22;9633;50.980;13.850;2023-02-01T07:00:48;5.10;99.90
19000;DHT22;9633;50.980;13.850;2023-02-01T07:02:23;5.10;99.90
19000;DHT22;9633;50.980;13.850;2023-02-01T07:03:57;5.20;99.90
19000;DHT22;9633;50.980;13.850;2023-02-01T07:05:30;5.20;99.90
19000;DHT22;9633;50.980;13.850;2023-02-01T07:07:03;5.30;99.90
19000;DHT22;9633;50.980;13.850;2023-02-01T07:08:37;5.30;99.90
19000;DHT22;9633;50.980;13.850;2023-02-01T07:10:10;5.20;99.90
19000;DHT22;9633;50.980;13.850;2023-02-01T07:11:44;5.30;99.90
19000;DHT22;9633;50.980;13.850;2023-02-01T07:13:17;5.20;99.90
19000;DHT22;9633;50.980;13.850;2023-02-01T07:14:50;5.30;99.90
19000;DHT22;9633;50.980;13.850;2023-02-01T07:16:23;5.30;99.90
19000;DHT22;9633;50.980;13.850;2023-02-01T07:17:58;5.30;99.90
19000;DHT22;9633;50.980;13.850;2023-02-01T07:19:31;5.30;99.90
19000;DHT22;9633;50.980;13.850;2023-02-01T07:21:05;5.20;99.90
19000;DHT22;9633;50.980;13.850;2023-02-01T07:22:38;5.20;99.90
19000;DHT22;9633;50.980;13.850;2023-02-01T07:24:11;5.10;99.90
19000;DHT22;9633;50.980;13.850;2023-02-01T07:25:44;5.10;99.90
19000;DHT22;9633;50.980;13.850;2023-02-01T07:27:17;5.10;99.90
19000;DHT22;9633;50.980;13.850;2023-02-01T07:28:51;5.00;99.90
19000;DHT22;9633;50.980;13.850;2023-02-01T07:30:24;5.00;99.90
19000;DHT22;9633;50.980;13.850;2023-02-01T07:31:59;4.90;99.90
19000;DHT22;9633;50.980;13.850;2023-02-01T07:33:35;4.90;99.90
19000;DHT22;9633;50.980;13.850;2023-02-01T07:35:08;4.80;99.90
19000;DHT22;9633;50.980;13.850;2023-02-01T07:36:41;4.70;99.90
19000;DHT22;9633;50.980;13.850;2023-02-01T07:38:14;4.60;99.90
19000;DHT22;9633;50.980;13.850;2023-02-01T07:39:48;4.50;99.90
19000;DHT22;9633;50.980;13.850;2023-02-01T07:41:21;4.50;99.90
19000;DHT22;9633;50.980;13.850;2023-02-01T07:42:54;4.40;99.90
19000;DHT22;9633;50.980;13.850;2023-02-01T07:44:27;4.40;99.90
19000;DHT22;9633;50.980;13.850;2023-02-01T07:46:02;4.30;99.90
19000;DHT22;9633;50.980;13.850;2023-02-01T07:47:35;4.30;99.90
19000;DHT22;9633;50.980;13.850;2023-02-01T07:49:10;4.30;99.90
19000;DHT22;9633;50.980;13.850;2023-02-01T07:50:44;4.30;99.90
19000;DHT22;9633;50.980;13.850;2023-02-01T07:52:17;4.30;99.90
19000;DHT22;9633;50.980;13.850;2023-02-01T07:53:50;4.30;99.90
19000;DHT22;9633;50.980;13.850;2023-02-01T07:55:27;4.30;99.90
19000;DHT22;9633;50.980;13.850;2023-02-01T07:57:00;4.30;99.90
19000;DHT22;9633;50.980;13.850;2023-02-01T07:58:34;4.30;99.90
19000;DHT22;9633;50.980;13.850;2023-02-01T08:00:08;4.30;99.90
19000;DHT22;9633;50.980;13.850;2023-02-01T08:01:59;4.30;99.90
19000;DHT22;9633;50.980;13.850;2023-02-01T08:03:32;4.30;99.90
19000;DHT22;9633;50.980;13.850;2023-02-01T08:05:07;4.30;99.90
19000;DHT22;9633;50.980;13.850;2023-02-01T08:06:40;4.30;99.90
19000;DHT22;9633;50.980;13.850;2023-02-01T08:08:14;4.40;99.90
19000;DHT22;9633;50.980;13.850;2023-02-01T08:09:47;4.40;99.90
19000;DHT22;9633;50.980;13.850;2023-02-01T08:11:21;4.40;99.90
19000;DHT22;9633;50.980;13.850;2023-02-01T08:12:58;4.50;99.90
19000;DHT22;9633;50.980;13.850;2023-02-01T08:14:31;4.60;99.90
19000;DHT22;9633;50.980;13.850;2023-02-01T08:16:06;4.60;99.90
19000;DHT22;9633;50.980;13.850;2023-02-01T08:17:40;4.60;99.90
19000;DHT22;9633;50.980;13.850;2023-02-01T08:19:13;4.70;99.90
19000;DHT22;9633;50.980;13.850;2023-02-01T08:20:47;4.70;99.90
19000;DHT22;9633;50.980;13.850;2023-02-01T08:22:20;4.60;99.90
19000;DHT22;9633;50.980;13.850;2023-02-01T08:23:53;4.70;99.90
19000;DHT22;9633;50.980;13.850;2023-02-01T08:25:28;4.70;99.90
19000;DHT22;9633;50.980;13.850;2023-02-01T08:27:01;4.70;99.90
19000;DHT22;9633;50.980;13.850;2023-02-01T08:28:35;4.60;99.90
19000;DHT22;9633;50.980;13.850;2023-02-01T08:30:11;4.60;99.90
19000;DHT22;9633;50.980;13.850;2023-02-01T08:31:45;4.60;99.90
19000;DHT22;9633;50.980;13.850;2023-02-01T08:33:18;4.60;99.90
19000;DHT22;9633;50.980;13.850;2023-02-01T08:34:51;4.60;99.90
19000;DHT22;9633;50.980;13.850;2023-02-01T08:36:29;4.60;99.90
19000;DHT22;9633;50.980;13.850;2023-02-01T08:38:02;4.50;99.90
19000;DHT22;9633;50.980;13.850;2023-02-01T08:39:36;4.50;99.90
19000;DHT22;9633;50.980;13.850;2023-02-01T08:41:11;4.50;99.90
19000;DHT22;9633;50.980;13.850;2023-02-01T08:42:45;4.50;99.90
19000;DHT22;9633;50.980;13.850;2023-02-01T08:44:23;4.60;99.90
19000;DHT22;9633;50.980;13.850;2023-02-01T08:45:57;4.70;99.90
19000;DHT22;9633;50.980;13.850;2023-02-01T08:47:30;4.80;99.90
19000;DHT22;9633;50.980;13.850;2023-02-01T08:49:03;4.90;99.90
19000;DHT22;9633;50.980;13.850;2023-02-01T08:50:37;4.90;99.90
19000;DHT22;9633;50.980;13.850;2023-02-01T08:52:11;5.00;99.90
19000;DHT22;9633;50.980;13.850;2023-02-01T08:53:47;5.10;99.90
19000;DHT22;9633;50.980;13.850;2023-02-01T08:55:21;5.10;99.90
19000;DHT22;9633;50.980;13.850;2023-02-01T08:56:54;5.10;99.90
19000;DHT22;9633;50.980;13.850;2023-02-01T08:58:28;5.20;99.90
19000;DHT22;9633;50.980;13.850;2023-02-01T09:00:01;5.20;99.90
19000;DHT22;9633;50.980;13.850;2023-02-01T09:01:35;5.20;99.90
19000;DHT22;9633;50.980;13.850;2023-02-01T09:03:10;5.30;99.90
19000;DHT22;9633;50.980;13.850;2023-02-01T09:04:43;5.30;99.90
19000;DHT22;9633;50.980;13.850;2023-02-01T09:06:17;5.40;99.90
19000;DHT22;9633;50.980;13.850;2023-02-01T09:07:51;5.40;99.90
19000;DHT22;9633;50.980;13.850;2023-02-01T09:09:27;5.50;99.90
19000;DHT22;9633;50.980;13.850;2023-02-01T09:11:02;5.50;99.90
19000;DHT22;9633;50.980;13.850;2023-02-01T09:12:35;5.60;99.90
19000;DHT22;9633;50.980;13.850;2023-02-01T09:14:09;5.60;99.90
19000;DHT22;9633;50.980;13.850;2023-02-01T09:15:42;5.70;99.90
19000;DHT22;9633;50.980;13.850;2023-02-01T09:17:15;5.80;99.90
19000;DHT22;9633;50.980;13.850;2023-02-01T09:18:48;5.70;99.90
19000;DHT22;9633;50.980;13.850;2023-02-01T09:20:42;5.70;99.90
19000;DHT22;9633;50.980;13.850;2023-02-01T09:22:15;5.70;99.90
19000;DHT22;9633;50.980;13.850;2023-02-01T09:23:50;5.70;99.90
19000;DHT22;9633;50.980;13.850;2023-02-01T09:25:23;5.70;99.90
19000;DHT22;9633;50.980;13.850;2023-02-01T09:26:57;5.70;99.90
19000;DHT22;9633;50.980;13.850;2023-02-01T09:28:30;5.70;99.90
19000;DHT22;9633;50.980;13.850;2023-02-01T09:30:04;5.60;99.90
19000;DHT22;9633;50.980;13.850;2023-02-01T09:31:39;5.60;99.90
19000;DHT22;9633;50.980;13.850;2023-02-01T09:33:17;5.50;99.90
19000;DHT22;9633;50.980;13.850;2023-02-01T09:34:50;5.50;99.90
19000;DHT22;9633;50.980;13.850;2023-02-01T09:36:24;5.50;99.90
19000;DHT22;9633;50.980;13.850;2023-02-01T09:37:57;5.50;99.90
19000;DHT22;9633;50.980;13.850;2023-02-01T09:39:31;5.50;99.90
19000;DHT22;9633;50.980;13.850;2023-02-01T09:41:10;5.40;99.90
19000;DHT22;9633;50.980;13.850;2023-02-01T09:43:03;5.20;99.90
19000;DHT22;9633;50.980;13.850;2023-02-01T09:44:51;5.20;99.90
19000;DHT22;9633;50.980;13.850;2023-02-01T09:46:28;5.10;99.90
19000;DHT22;9633;50.980;13.850;2023-02-01T09:48:05;5.10;99.90
19000;DHT22;9633;50.980;13.850;2023-02-01T09:49:48;5.10;99.90
19000;DHT22;9633;50.980;13.850;2023-02-01T09:51:26;5.10;99.90
19000;DHT22;9633;50.980;13.850;2023-02-01T09:53:03;5.00;99.90
19000;DHT22;9633;50.980;13.850;2023-02-01T09:54:42;4.90;99.90
19000;DHT22;9633;50.980;13.850;2023-02-01T09:56:23;4.80;99.90
19000;DHT22;9633;50.980;13.850;2023-02-01T09:58:00;4.70;99.90
19000;DHT22;9633;50.980;13.850;2023-02-01T09:59:39;4.60;99.90
19000;DHT22;9633;50.980;13.850;2023-02-01T10:01:16;4.50;99.90
19000;DHT22;9633;50.980;13.850;2023-02-01T10:02:51;4.40;99.90
19000;DHT22;9633;50.980;13.850;2023-02-01T10:04:26;4.30;99.90
19000;DHT22;9633;50.980;13.850;2023-02-01T10:06:24;4.10;99.90
19000;DHT22;9633;50.980;13.850;2023-02-01T10:08:07;4.10;99.90
19000;DHT22;9633;50.980;13.850;2023-02-01T10:09:50;4.00;99.90
19000;DHT22;9633;50.980;13.850;2023-02-01T10:11:32;3.90;99.90
19000;DHT22;9633;50.980;13.850;2023-02-01T10:13:36;3.90;99.90
19000;DHT22;9633;50.980;13.850;2023-02-01T10:15:21;3.90;99.90
19000;DHT22;9633;50.980;13.850;2023-02-01T10:17:03;3.90;99.90
19000;DHT22;9633;50.980;13.850;2023-02-01T10:20:47;3.80;99.90
19000;DHT22;9633;50.980;13.850;2023-02-01T10:22:32;3.80;99.90